Time;durP1;ratioP1;P1;durP2;ratioP2;P2;SDS_P1;SDS_P2;PMS_P1;PMS_P2;Temp;Humidity;BMP_temperature;BMP_pressure;BME280_temperature;BME280_humidity;BME280_pressure;Samples;Min_cycle;Max_cycle;Signal;HPM_P1;HPM_P2
2021/06/14 00:01:48;;;;;;;14.45;6.03;;;;;;;17.24;80.14;102298.16;10529152;28;20048;-73
2021/06/14 00:06:48;;;;;;;12.70;5.63;;;;;;;17.19;79.67;102301.22;10541494;28;20509;-75
2021/06/14 00:11:49;;;;;;;10.43;5.75;;;;;;;17.10;80.39;102308.91;10518030;28;20059;-73
2021/06/14 00:16:50;;;;;;;14.20;6.32;;;;;;;16.86;80.65;102278.13;10543076;28;20296;-75
2021/06/14 00:21:52;;;;;;;11.57;6.07;;;;;;;16.88;81.28;102280.47;10531652;28;20476;-73
2021/06/14 00:26:52;;;;;;;12.00;6.13;;;;;;;16.86;80.99;102283.56;10528956;28;20066;-72
2021/06/14 00:31:53;;;;;;;14.23;6.40;;;;;;;16.81;81.43;102275.66;10542941;28;20286;-72
2021/06/14 00:36:54;;;;;;;14.27;7.85;;;;;;;16.65;81.32;102283.19;10542111;28;20730;-75
2021/06/14 00:41:54;;;;;;;13.57;6.80;;;;;;;16.53;82.93;102275.19;10534658;28;20040;-72
2021/06/14 00:46:55;;;;;;;10.95;6.55;;;;;;;16.40;83.08;102269.94;10551510;28;20035;-73
2021/06/14 00:51:55;;;;;;;11.18;6.72;;;;;;;16.28;84.64;102259.22;10523020;28;20036;-74
2021/06/14 00:56:56;;;;;;;14.70;7.82;;;;;;;16.20;84.05;102252.84;10520863;28;20146;-74
2021/06/14 01:01:56;;;;;;;15.35;8.32;;;;;;;15.94;83.89;102212.63;10501486;28;20064;-73
2021/06/14 01:06:57;;;;;;;14.63;7.53;;;;;;;15.97;85.18;102222.81;10502835;28;20075;-72
2021/06/14 01:12:04;;;;;;;14.45;8.27;;;;;;;16.02;85.08;102229.91;10503603;28;20040;-73
2021/06/14 01:17:14;;;;;;;15.07;7.88;;;;;;;15.69;86.60;102184.09;10484422;28;20044;-76
2021/06/14 01:22:21;;;;;;;15.70;8.52;;;;;;;15.95;86.64;102229.78;10503503;28;20139;-74
2021/06/14 01:27:37;;;;;;;12.68;8.55;;;;;;;15.80;87.72;102217.81;10503442;28;20046;-75
2021/06/14 01:32:39;;;;;;;16.50;8.88;;;;;;;15.85;86.46;102214.81;10504431;28;20032;-72
2021/06/14 01:37:48;;;;;;;15.10;9.13;;;;;;;15.59;86.67;102169.91;10500969;28;20028;-75
2021/06/14 01:42:51;;;;;;;14.32;8.20;;;;;;;15.62;85.45;102163.72;10502505;28;20060;-73
2021/06/14 01:47:52;;;;;;;16.58;8.52;;;;;;;15.82;85.93;102204.59;10497444;28;20048;-74
2021/06/14 01:52:54;;;;;;;16.67;7.57;;;;;;;15.65;85.72;102182.09;10481542;28;20502;-76
2021/06/14 01:57:55;;;;;;;11.30;7.95;;;;;;;15.17;84.61;102099.84;10496633;28;20520;-73
2021/06/14 02:02:57;;;;;;;14.35;7.75;;;;;;;15.49;84.90;102148.69;10523918;28;20043;-73
2021/06/14 02:07:57;;;;;;;13.07;7.57;;;;;;;15.59;83.46;102169.91;10508241;28;20056;-72
2021/06/14 02:12:58;;;;;;;10.07;6.78;;;;;;;15.37;82.54;102135.22;10517452;28;20138;-73
2021/06/14 02:18:00;;;;;;;15.00;7.88;;;;;;;15.48;83.13;102163.47;10536143;28;20583;-72
2021/06/14 02:23:01;;;;;;;13.60;6.80;;;;;;;15.54;81.37;102156.56;10543945;28;20104;-73
2021/06/14 02:28:01;;;;;;;16.05;6.78;;;;;;;15.58;80.44;102162.88;10548395;28;20041;-73
2021/06/14 02:33:02;;;;;;;13.98;6.60;;;;;;;15.57;78.09;102155.84;10553613;28;20036;-75
2021/06/14 02:38:05;;;;;;;13.05;6.88;;;;;;;15.73;77.68;102168.59;10551252;28;20118;-73
2021/06/14 02:43:08;;;;;;;11.88;6.25;;;;;;;15.73;75.07;102153.06;10535112;28;20032;-74
2021/06/14 02:48:09;;;;;;;14.85;7.03;;;;;;;15.78;75.17;102143.78;10530081;28;20122;-73
2021/06/14 02:53:13;;;;;;;13.07;7.25;;;;;;;15.55;72.89;102092.75;10551041;28;20031;-74
2021/06/14 02:58:14;;;;;;;12.20;6.30;;;;;;;15.96;72.08;102149.53;10534871;28;20044;-76
2021/06/14 03:03:14;;;;;;;17.00;6.13;;;;;;;16.00;70.25;102151.19;10544704;28;20039;-76
2021/06/14 03:08:16;;;;;;;10.43;5.68;;;;;;;15.68;70.68;102100.72;10543341;28;20047;-76
2021/06/14 03:13:17;;;;;;;14.90;5.87;;;;;;;15.67;70.90;102099.19;10524982;28;20046;-74
2021/06/14 03:18:19;;;;;;;9.98;5.47;;;;;;;15.97;71.25;102151.91;10533527;28;20429;-73
2021/06/14 03:23:19;;;;;;;16.63;6.73;;;;;;;15.95;71.26;102165.13;10549671;28;20114;-73
2021/06/14 03:28:20;;;;;;;11.02;5.68;;;;;;;15.89;72.25;102166.56;10549663;28;20387;-73
2021/06/14 03:33:21;;;;;;;13.18;6.25;;;;;;;15.73;73.34;102152.25;10547125;28;20100;-73
2021/06/14 03:38:22;;;;;;;12.77;6.60;;;;;;;15.72;73.32;102167.03;10536018;28;20044;-74
2021/06/14 03:43:23;;;;;;;10.48;5.85;;;;;;;15.68;73.22;102155.25;10548975;28;20027;-75
2021/06/14 03:48:23;;;;;;;11.50;5.47;;;;;;;15.35;73.47;102115.72;10528578;28;20039;-73
2021/06/14 03:53:31;;;;;;;16.13;6.57;;;;;;;15.60;73.79;102160.56;10525145;28;20044;-74
2021/06/14 03:58:32;;;;;;;12.90;5.85;;;;;;;15.55;74.06;102158.16;10531635;28;20047;-73
2021/06/14 04:03:32;;;;;;;13.20;5.35;;;;;;;15.48;74.35;102152.56;10548999;28;20052;-74
2021/06/14 04:08:36;;;;;;;9.60;6.10;;;;;;;15.14;75.17;102107.91;10535705;28;20043;-74
2021/06/14 04:13:37;;;;;;;17.65;6.72;;;;;;;15.54;75.62;102162.00;10510965;28;20050;-75
2021/06/14 04:18:37;;;;;;;13.68;6.10;;;;;;;15.50;75.74;102150.28;10527608;28;20050;-75
2021/06/14 04:23:38;;;;;;;13.23;6.00;;;;;;;15.47;76.04;102150.97;10545988;28;20039;-76
2021/06/14 04:28:44;;;;;;;11.25;6.22;;;;;;;15.41;77.74;102152.44;10516489;28;20040;-74
2021/06/14 04:33:44;;;;;;;17.88;7.45;;;;;;;15.33;78.61;102150.72;10519179;28;20048;-74
2021/06/14 04:38:47;;;;;;;10.27;5.97;;;;;;;15.51;80.41;102162.75;10547104;28;20036;-74
2021/06/14 04:43:47;;;;;;;14.77;5.93;;;;;;;15.29;79.98;102117.97;10531911;28;20459;-74
2021/06/14 04:48:48;;;;;;;14.88;6.68;;;;;;;15.29;79.81;102133.53;10527908;28;20031;-73
2021/06/14 04:53:50;;;;;;;10.65;5.47;;;;;;;15.51;80.76;102161.97;10537641;28;20476;-75
2021/06/14 04:58:50;;;;;;;13.00;7.10;;;;;;;15.44;80.17;102147.03;10542740;28;20073;-74
2021/06/14 05:03:55;;;;;;;13.57;6.38;;;;;;;15.69;81.12;102170.47;10541365;28;20357;-75
2021/06/14 05:08:55;;;;;;;9.93;6.07;;;;;;;15.72;80.35;102156.16;10520568;28;20069;-75
2021/06/14 05:13:56;;;;;;;18.63;8.85;;;;;;;15.45;80.44;102087.91;10529259;28;20047;-74
2021/06/14 05:18:59;;;;;;;15.75;7.72;;;;;;;15.83;81.25;102146.22;10530375;28;20382;-74
2021/06/14 05:23:59;;;;;;;;;;;;;;;15.91;80.11;102131.53;10526270;28;20066;-73
2021/06/14 05:29:00;;;;;;;13.03;5.83;;;;;;;16.06;76.52;102127.09;10528289;28;19912;-74
2021/06/14 05:34:00;;;;;;;14.60;6.18;;;;;;;16.21;73.82;102101.63;10523140;28;20270;-74
2021/06/14 05:39:01;;;;;;;13.63;4.85;;;;;;;16.56;70.31;102132.53;10542617;28;20084;-75
2021/06/14 05:44:02;;;;;;;8.55;4.07;;;;;;;16.46;69.11;102085.63;10547015;28;20470;-76
2021/06/14 05:49:03;;;;;;;15.77;5.43;;;;;;;16.96;67.19;102125.69;10548128;28;20060;-74
2021/06/14 05:54:04;;;;;;;10.10;4.60;;;;;;;16.88;67.30;102084.59;10552497;28;20044;-74
2021/06/14 05:59:05;;;;;;;13.98;4.82;;;;;;;17.26;67.59;102109.22;10529024;28;20058;-74
2021/06/14 06:04:06;;;;;;;12.27;4.10;;;;;;;17.07;67.69;102070.00;10547347;28;20039;-75
2021/06/14 06:09:07;;;;;;;11.55;4.55;;;;;;;17.43;66.43;102103.16;10554828;28;20083;-73
2021/06/14 06:14:07;;;;;;;12.05;4.20;;;;;;;17.66;64.12;102116.66;10553599;28;20137;-74
2021/06/14 06:19:08;;;;;;;11.68;4.05;;;;;;;17.47;64.62;102060.25;10552039;28;20480;-74
2021/06/14 06:24:09;;;;;;;16.85;5.68;;;;;;;18.00;62.68;102113.06;10540823;28;20050;-74
2021/06/14 06:29:09;;;;;;;16.60;4.70;;;;;;;18.07;60.64;102108.44;10522712;28;20028;-76
2021/06/14 06:34:10;;;;;;;16.05;6.32;;;;;;;18.28;60.91;102112.50;10507379;28;20032;-73
2021/06/14 06:39:11;;;;;;;11.80;4.10;;;;;;;17.52;60.41;101974.38;10551625;28;20047;-74
2021/06/14 06:44:14;;;;;;;11.40;4.25;;;;;;;18.18;60.65;102056.53;10527564;28;20475;-76
2021/06/14 06:49:16;;;;;;;15.82;4.97;;;;;;;18.54;61.54;102087.59;10534883;28;20105;-79
2021/06/14 06:54:16;;;;;;;15.18;4.82;;;;;;;18.77;60.50;102083.81;10532523;28;20101;-76
2021/06/14 06:59:17;;;;;;;16.15;4.28;;;;;;;18.80;58.24;102022.78;10520710;28;20087;-75
2021/06/14 07:04:17;;;;;;;14.02;4.38;;;;;;;20.13;55.45;102062.06;10539992;28;20071;-77
2021/06/14 07:09:18;;;;;;;13.13;4.70;;;;;;;22.54;46.91;102055.69;10510465;28;20055;-74
2021/06/14 07:14:18;;;;;;;11.63;4.25;;;;;;;23.78;43.78;102032.19;10539842;28;20491;-76
2021/06/14 07:19:19;;;;;;;10.90;4.18;;;;;;;25.69;41.11;102049.78;10527595;28;20423;-77
2021/06/14 07:24:19;;;;;;;17.03;5.43;;;;;;;27.41;36.98;101983.69;10502226;28;20392;-77
2021/06/14 07:29:20;;;;;;;12.43;4.77;;;;;;;28.48;34.61;102039.47;10524210;28;20380;-76
2021/06/14 07:34:20;;;;;;;16.30;6.27;;;;;;;28.52;33.86;101984.47;10548759;28;20130;-76
2021/06/14 07:39:21;;;;;;;14.57;6.03;;;;;;;29.28;33.79;102037.94;10544948;28;20084;-76
2021/06/14 07:44:21;;;;;;;14.00;7.80;;;;;;;29.39;33.70;102015.94;10545801;28;20036;-77
2021/06/14 07:49:23;;;;;;;17.43;7.60;;;;;;;29.53;33.57;101974.81;10544272;28;20023;-77
2021/06/14 07:54:23;;;;;;;20.65;7.80;;;;;;;29.74;34.33;102018.47;10549600;28;20120;-79
2021/06/14 07:59:24;;;;;;;21.40;7.45;;;;;;;28.72;35.51;102017.47;10529741;28;114586;-78
2021/06/14 08:04:24;;;;;;;21.47;8.73;;;;;;;28.04;36.22;101997.78;10540342;27;20126;-78
2021/06/14 08:09:30;;;;;;;19.63;7.73;;;;;;;29.68;34.78;102009.16;10548348;28;20036;-78
2021/06/14 08:14:31;;;;;;;20.60;7.88;;;;;;;30.46;33.45;102020.84;10556833;28;20059;-77
2021/06/14 08:19:45;;;;;;;18.50;5.95;;;;;;;28.83;34.97;101980.88;10535102;28;20198;-74
2021/06/14 08:30:19;;;;;;;18.67;7.35;;;;;;;28.74;35.86;102014.22;10558211;27;20308;-74
2021/06/14 08:35:23;;;;;;;24.13;6.60;;;;;;;28.70;35.23;101994.13;10551892;27;20035;-75
2021/06/14 08:40:32;;;;;;;17.42;5.80;;;;;;;28.27;34.53;102017.97;10533590;28;20154;-77
2021/06/14 08:45:35;;;;;;;11.60;3.75;;;;;;;27.23;35.31;102033.47;10542777;28;20074;-78
2021/06/14 08:50:37;;;;;;;11.77;4.90;;;;;;;26.42;36.79;101985.63;10541528;28;20036;-78
2021/06/14 08:55:38;;;;;;;12.63;4.60;;;;;;;26.42;37.53;101999.50;10541320;28;20103;-75
2021/06/14 09:00:38;;;;;;;19.73;5.10;;;;;;;26.71;37.97;102004.97;10543323;28;20052;-74
2021/06/14 09:05:39;;;;;;;9.63;4.37;;;;;;;27.31;36.92;101973.75;10549134;28;20027;-75
2021/06/14 09:10:41;;;;;;;17.07;4.73;;;;;;;27.24;38.13;102018.41;10527152;28;20079;-76
2021/06/14 09:15:50;;;;;;;;;;;;;;;27.22;37.97;102020.06;10547902;28;20168;-74
2021/06/14 09:21:03;;;;;;;12.07;5.13;;;;;;;26.74;40.30;101992.22;10532893;28;20373;-79
2021/06/14 09:26:04;;;;;;;12.05;6.00;;;;;;;26.96;40.56;102004.19;10542227;28;20123;-78
2021/06/14 09:31:13;;;;;;;16.98;6.55;;;;;;;26.73;39.97;102018.41;10540389;28;20042;-77
2021/06/14 09:36:16;;;;;;;14.05;5.97;;;;;;;26.40;41.87;101999.16;10528294;28;20047;-75
2021/06/14 09:41:18;;;;;;;11.00;4.75;;;;;;;26.84;38.52;101974.47;10545803;28;20039;-75
2021/06/14 09:46:31;;;;;;;13.20;4.80;;;;;;;26.93;37.12;101999.53;10546353;28;20052;-77
2021/06/14 09:51:34;;;;;;;8.70;3.75;;;;;;;27.05;37.20;102005.53;10515294;28;20472;-75
2021/06/14 09:56:37;;;;;;;10.05;3.60;;;;;;;26.52;35.51;101992.84;10545769;28;20063;-78
2021/06/14 10:01:39;;;;;;;13.80;5.22;;;;;;;26.79;37.40;101972.25;10529008;28;20569;-77
2021/06/14 10:06:44;;;;;;;13.73;5.17;;;;;;;26.60;36.25;101987.13;10517220;28;20040;-76
2021/06/14 10:11:46;;;;;;;9.80;4.90;;;;;;;27.16;36.64;101989.28;10515003;28;20016;-75
2021/06/14 10:16:48;;;;;;;13.07;6.30;;;;;;;27.63;33.66;101949.63;10551554;28;20028;-76
2021/06/14 10:21:51;;;;;;;12.98;6.00;;;;;;;28.82;33.21;101982.09;10538284;28;20177;-76
2021/06/14 10:26:53;;;;;;;14.40;5.65;;;;;;;29.00;30.87;101940.41;10537407;28;20043;-76
2021/06/14 10:31:54;;;;;;;11.20;5.10;;;;;;;28.69;32.07;101948.06;10515560;28;20080;-75
2021/06/14 10:36:56;;;;;;;18.10;7.43;;;;;;;28.41;31.72;101947.91;10526341;28;20039;-75
2021/06/14 10:41:58;;;;;;;12.18;5.38;;;;;;;28.57;30.25;101947.69;10530574;28;20035;-75
2021/06/14 10:46:59;;;;;;;14.50;6.80;;;;;;;28.45;31.99;101956.91;10550729;28;20475;-75
2021/06/14 10:52:04;;;;;;;19.20;6.60;;;;;;;28.62;31.55;101949.91;10543763;28;20108;-74
2021/06/14 10:57:07;;;;;;;19.33;6.53;;;;;;;28.93;30.79;101954.63;10562422;28;20107;-74
2021/06/14 11:02:09;;;;;;;13.63;5.72;;;;;;;29.24;30.13;101939.84;10564506;28;20036;-75
2021/06/14 11:07:10;;;;;;;13.32;4.63;;;;;;;28.91;31.54;101976.56;10563939;28;20126;-75
2021/06/14 11:12:31;;;;;;;13.57;4.70;;;;;;;28.59;31.05;101959.16;10544728;28;20054;-77
2021/06/14 11:17:36;;;;;;;11.45;4.53;;;;;;;28.51;30.59;101959.91;10560568;28;20043;-74
2021/06/14 11:22:50;;;;;;;14.75;3.92;;;;;;;29.10;30.01;101965.50;10537306;28;20859;-73
2021/06/14 11:27:51;;;;;;;9.98;3.15;;;;;;;29.99;29.13;101967.19;10516003;28;20043;-75
2021/06/14 11:32:52;;;;;;;8.18;3.40;;;;;;;29.60;29.20;101966.13;10525970;28;20036;-75
2021/06/14 11:37:53;;;;;;;8.87;3.57;;;;;;;29.56;29.83;101923.72;10533034;28;20438;-74
2021/06/14 11:42:59;;;;;;;11.48;3.25;;;;;;;30.23;28.07;101953.31;10557170;28;20472;-74
2021/06/14 11:48:02;;;;;;;9.32;3.50;;;;;;;30.18;27.79;101906.56;10556114;28;20226;-74
2021/06/14 11:53:05;;;;;;;11.13;3.83;;;;;;;29.43;27.56;101921.88;10556518;28;20114;-74
2021/06/14 11:58:09;;;;;;;11.77;3.55;;;;;;;30.14;28.87;101945.00;10558031;28;20495;-80
2021/06/14 12:03:24;;;;;;;13.18;4.13;;;;;;;29.97;28.47;101886.03;10557379;28;20039;-78
2021/06/14 12:08:27;;;;;;;10.05;3.92;;;;;;;30.41;28.35;101934.97;10544642;28;20040;-75
2021/06/14 12:13:29;;;;;;;9.93;3.65;;;;;;;30.61;27.82;101926.81;10527060;28;20460;-75
2021/06/14 12:18:29;;;;;;;9.43;3.95;;;;;;;31.12;28.45;101925.91;10533523;28;20107;-75
2021/06/14 12:23:48;;;;;;;9.83;3.90;;;;;;;30.95;28.21;101922.00;10525294;28;20088;-76
2021/06/14 12:28:48;;;;;;;12.65;3.75;;;;;;;30.85;27.98;101861.88;10554950;28;20032;-77
2021/06/14 12:33:49;;;;;;;11.70;4.00;;;;;;;31.18;27.00;101918.41;10535716;28;20039;-77
2021/06/14 12:38:51;;;;;;;11.50;3.17;;;;;;;31.46;27.29;101912.59;10547496;28;20044;-78
2021/06/14 12:43:53;;;;;;;10.75;3.50;;;;;;;31.22;27.17;101907.03;10526474;28;20067;-77
2021/06/14 12:48:54;;;;;;;8.32;3.25;;;;;;;31.54;27.21;101916.56;10552077;28;20453;-76
2021/06/14 12:53:54;;;;;;;8.93;3.20;;;;;;;31.03;26.91;101872.91;10543301;28;20068;-77
2021/06/14 12:58:55;;;;;;;8.20;3.17;;;;;;;31.06;27.57;101891.50;10531831;28;20055;-76
2021/06/14 13:03:55;;;;;;;10.13;3.00;;;;;;;31.16;29.00;101920.91;10538860;28;20047;-75
2021/06/14 13:08:59;;;;;;;8.70;2.67;;;;;;;31.06;27.04;101860.78;10536202;28;20043;-75
2021/06/14 13:13:59;;;;;;;9.57;3.22;;;;;;;31.48;26.20;101879.34;10563440;28;20062;-75
2021/06/14 13:19:01;;;;;;;8.57;4.00;;;;;;;31.23;28.15;101896.63;10557666;28;20041;-75
2021/06/14 13:24:11;;;;;;;11.52;3.55;;;;;;;31.47;28.36;101894.59;10558714;28;20020;-74
2021/06/14 13:29:13;;;;;;;11.18;4.00;;;;;;;31.82;28.86;101891.13;10556621;28;20357;-74
2021/06/14 13:34:23;;;;;;;7.90;3.13;;;;;;;32.08;27.83;101890.50;10541446;28;20039;-76
2021/06/14 13:39:33;;;;;;;9.68;3.67;;;;;;;32.07;28.06;101894.56;10552583;28;21311;-75
2021/06/14 13:44:34;;;;;;;9.57;3.13;;;;;;;31.75;27.72;101858.72;10556612;28;20035;-77
2021/06/14 13:49:36;;;;;;;;;;;;;;;32.19;26.99;101873.91;10552472;28;20036;-76
2021/06/14 13:54:38;;;;;;;7.38;2.92;;;;;;;32.38;27.25;101874.41;10546790;28;20157;-77
2021/06/14 13:59:39;;;;;;;11.43;3.75;;;;;;;31.87;27.20;101865.28;10557632;28;20096;-75
2021/06/14 14:04:40;;;;;;;8.50;3.38;;;;;;;31.62;28.28;101821.16;10548292;28;20093;-74
2021/06/14 14:09:41;;;;;;;10.17;3.63;;;;;;;31.43;27.97;101821.34;10548511;28;20046;-77
2021/06/14 14:14:41;;;;;;;10.85;3.47;;;;;;;31.35;29.00;101825.75;10534262;28;20509;-76
2021/06/14 14:19:50;;;;;;;10.57;3.40;;;;;;;31.51;28.73;101816.91;10561577;28;20036;-76
2021/06/14 14:24:51;;;;;;;11.85;3.72;;;;;;;32.13;27.89;101859.06;10544792;28;20047;-76
2021/06/14 14:29:52;;;;;;;8.38;3.75;;;;;;;31.82;27.90;101812.84;10547065;28;20047;-76
2021/06/14 14:34:58;;;;;;;7.43;2.97;;;;;;;32.11;27.11;101850.41;10534763;28;20039;-75
2021/06/14 14:40:00;;;;;;;12.40;3.10;;;;;;;31.40;28.35;101819.53;10534298;28;20024;-75
2021/06/14 14:45:01;;;;;;;10.93;3.55;;;;;;;31.52;28.42;101849.19;10555114;28;20453;-75
2021/06/14 14:50:02;;;;;;;11.38;3.90;;;;;;;31.87;27.46;101820.53;10530133;28;20042;-76
2021/06/14 14:55:06;;;;;;;8.20;3.53;;;;;;;31.64;28.07;101801.88;10546393;28;20047;-75
2021/06/14 15:00:07;;;;;;;9.45;4.88;;;;;;;31.54;29.14;101841.09;10551786;28;20055;-75
2021/06/14 15:05:08;;;;;;;7.35;3.78;;;;;;;31.41;28.76;101795.91;10557342;28;20112;-77
2021/06/14 15:10:09;;;;;;;11.63;3.78;;;;;;;31.56;29.05;101807.88;10542432;28;20454;-75
2021/06/14 15:15:12;;;;;;;12.60;3.42;;;;;;;31.42;29.39;101831.00;10530285;28;20043;-75
2021/06/14 15:20:15;;;;;;;8.15;3.70;;;;;;;31.34;29.54;101829.81;10541539;28;20114;-75
2021/06/14 15:25:20;;;;;;;8.52;3.30;;;;;;;31.37;28.93;101784.13;10545177;28;20068;-76
2021/06/14 15:30:22;;;;;;;10.55;3.70;;;;;;;31.31;29.58;101819.59;10514613;28;20071;-76
2021/06/14 15:35:25;;;;;;;10.02;3.95;;;;;;;31.15;29.60;101793.69;10545512;28;20043;-75
2021/06/14 15:40:27;;;;;;;12.48;3.90;;;;;;;30.77;30.35;101812.00;10523615;28;20177;-75
2021/06/14 15:45:27;;;;;;;12.13;4.70;;;;;;;30.65;31.01;101776.75;10533397;28;20603;-76
2021/06/14 15:50:29;;;;;;;14.63;3.83;;;;;;;30.48;30.90;101795.94;10534558;28;20038;-76
2021/06/14 15:55:30;;;;;;;16.23;4.70;;;;;;;30.32;29.71;101788.75;10551729;28;20111;-76
2021/06/14 16:00:31;;;;;;;10.50;4.60;;;;;;;30.21;30.45;101782.91;10544654;28;20055;-77
2021/06/14 16:05:32;;;;;;;10.10;3.60;;;;;;;30.46;29.62;101811.63;10565920;28;20043;-76
2021/06/14 16:10:32;;;;;;;7.80;3.50;;;;;;;29.69;30.19;101793.41;10554672;28;20092;-76
2021/06/14 16:15:33;;;;;;;7.30;3.13;;;;;;;29.69;29.50;101787.81;10522568;28;20038;-77
2021/06/14 16:20:34;;;;;;;14.60;4.27;;;;;;;29.99;26.48;101788.00;10555871;28;20043;-75
2021/06/14 16:25:34;;;;;;;5.73;2.07;;;;;;;30.06;25.46;101787.66;10560151;28;20432;-76
2021/06/14 16:30:36;;;;;;;4.43;2.10;;;;;;;29.02;25.32;101748.66;10546912;28;20365;-76
2021/06/14 16:35:37;;;;;;;11.45;3.28;;;;;;;29.19;24.21;101801.25;10544529;28;20055;-77
2021/06/14 16:40:40;;;;;;;8.77;3.30;;;;;;;28.91;25.77;101798.47;10543210;28;20114;-79
2021/06/14 16:45:40;;;;;;;8.63;2.20;;;;;;;29.25;29.72;101799.38;10528887;28;20384;-76
2021/06/14 16:50:41;;;;;;;5.67;2.37;;;;;;;29.17;30.71;101759.19;10543101;28;20036;-75
2021/06/14 16:55:42;;;;;;;8.93;4.20;;;;;;;28.96;31.16;101756.09;10502817;28;20109;-76
2021/06/14 17:00:43;;;;;;;7.93;3.07;;;;;;;29.19;31.70;101756.72;10523761;28;20040;-76
2021/06/14 17:05:44;;;;;;;8.70;2.17;;;;;;;28.87;38.76;101787.47;10548376;28;20761;-75
2021/06/14 17:10:44;;;;;;;7.97;3.57;;;;;;;28.92;34.53;101799.22;10551095;28;20080;-76
2021/06/14 17:15:45;;;;;;;5.63;2.23;;;;;;;28.89;33.38;101784.22;10512826;28;20048;-76
2021/06/14 17:20:45;;;;;;;6.50;2.63;;;;;;;28.74;34.00;101783.28;10540481;28;20042;-75
2021/06/14 17:25:46;;;;;;;7.43;2.73;;;;;;;28.48;37.00;101794.75;10522762;28;20044;-75
2021/06/14 17:30:46;;;;;;;8.50;2.70;;;;;;;28.31;35.63;101762.84;10547844;28;20111;-75
2021/06/14 17:35:47;;;;;;;8.00;2.47;;;;;;;28.19;35.14;101756.19;10524816;28;20035;-74
2021/06/14 17:40:47;;;;;;;5.57;2.60;;;;;;;28.16;35.62;101796.78;10545783;28;20333;-75
2021/06/14 17:45:48;;;;;;;4.40;2.50;;;;;;;27.93;33.63;101750.88;10559744;28;20039;-75
2021/06/14 17:50:49;;;;;;;8.50;3.00;;;;;;;27.99;35.03;101787.19;10531157;28;20049;-74
2021/06/14 17:55:50;;;;;;;5.53;2.67;;;;;;;27.78;35.13;101795.09;10529857;28;20123;-76
2021/06/14 18:00:51;;;;;;;8.37;3.37;;;;;;;27.58;35.98;101780.78;10550723;28;20138;-75
2021/06/14 18:05:51;;;;;;;8.20;3.23;;;;;;;27.41;36.11;101789.34;10555017;28;20050;-74
2021/06/14 18:10:52;;;;;;;7.50;3.17;;;;;;;27.45;35.26;101782.91;10567148;28;20052;-73
2021/06/14 18:15:52;;;;;;;6.75;3.40;;;;;;;27.03;36.50;101780.44;10528905;28;20111;-75
2021/06/14 18:20:53;;;;;;;9.68;4.30;;;;;;;26.73;40.01;101752.16;10554641;28;20047;-73
2021/06/14 18:25:53;;;;;;;8.00;3.25;;;;;;;26.84;41.97;101780.28;10539323;28;20115;-74
2021/06/14 18:30:54;;;;;;;5.13;2.93;;;;;;;26.73;41.99;101790.97;10561895;28;20028;-74
2021/06/14 18:35:57;;;;;;;13.85;3.25;;;;;;;26.38;43.57;101788.16;10561030;28;20031;-74
2021/06/14 18:41:01;;;;;;;6.75;2.83;;;;;;;25.86;43.40;101753.38;10562566;28;20441;-73
2021/06/14 18:46:02;;;;;;;5.82;2.85;;;;;;;26.05;43.35;101807.03;10529512;28;20033;-75
2021/06/14 18:51:03;;;;;;;7.43;2.78;;;;;;;25.54;43.47;101785.59;10562005;28;20035;-74
2021/06/14 18:56:05;;;;;;;7.32;2.90;;;;;;;25.56;44.46;101813.59;10525576;28;20549;-75
2021/06/14 19:01:05;;;;;;;7.97;2.97;;;;;;;25.02;45.32;101781.09;10560208;28;20047;-73
2021/06/14 19:06:06;;;;;;;4.88;3.45;;;;;;;24.73;47.70;101787.41;10534433;28;20039;-75
2021/06/14 19:11:06;;;;;;;6.80;3.55;;;;;;;24.72;49.13;101827.31;10532816;28;20039;-77
2021/06/14 19:16:07;;;;;;;10.15;3.90;;;;;;;24.23;50.65;101791.38;10562889;28;20111;-74
2021/06/14 19:21:08;;;;;;;11.00;4.43;;;;;;;24.34;50.73;101827.03;10518010;28;20062;-75
2021/06/14 19:26:09;;;;;;;12.20;4.60;;;;;;;24.15;51.99;101836.94;10560025;28;20301;-75
2021/06/14 19:31:09;;;;;;;8.27;4.55;;;;;;;24.01;52.79;101838.84;10556912;28;20051;-75
2021/06/14 19:36:10;;;;;;;11.50;6.05;;;;;;;23.86;53.82;101837.56;10541505;28;20034;-77
2021/06/14 19:41:14;;;;;;;12.88;4.95;;;;;;;23.68;54.62;101829.63;10563514;28;20028;-74
2021/06/14 19:46:15;;;;;;;12.05;4.97;;;;;;;23.37;54.76;101802.25;10538795;28;20040;-73
2021/06/14 19:51:15;;;;;;;9.88;5.18;;;;;;;23.21;54.80;101800.22;10564894;28;20057;-73
2021/06/14 19:56:16;;;;;;;13.82;4.93;;;;;;;23.29;54.76;101845.00;10560014;28;20032;-75
2021/06/14 20:01:17;;;;;;;12.15;6.50;;;;;;;23.18;55.14;101850.72;10520798;28;20076;-75
2021/06/14 20:06:18;;;;;;;14.52;5.97;;;;;;;23.11;55.83;101850.84;10551887;28;20039;-76
2021/06/14 20:11:19;;;;;;;12.52;5.68;;;;;;;22.87;55.68;101857.56;10539908;28;20042;-75
2021/06/14 20:16:20;;;;;;;12.40;6.38;;;;;;;22.48;56.15;101815.66;10543059;28;20366;-76
2021/06/14 20:21:20;;;;;;;9.82;6.28;;;;;;;22.57;57.00;101850.94;10547508;28;20088;-77
2021/06/14 20:26:22;;;;;;;11.57;5.97;;;;;;;22.18;57.46;101835.75;10537959;28;20476;-77
2021/06/14 20:31:23;;;;;;;12.68;6.78;;;;;;;22.02;58.64;101854.88;10529048;28;20043;-78
2021/06/14 20:36:24;;;;;;;10.80;6.88;;;;;;;21.88;59.20;101856.59;10546229;28;20024;-78
2021/06/14 20:41:25;;;;;;;13.40;7.65;;;;;;;21.66;60.38;101845.09;10548563;28;20032;-78
2021/06/14 20:46:27;;;;;;;20.20;8.97;;;;;;;21.73;61.87;101877.25;10537123;28;20440;-77
2021/06/14 20:51:27;;;;;;;19.27;12.52;;;;;;;21.25;63.90;101831.38;10541694;28;20043;-78
2021/06/14 20:56:28;;;;;;;23.70;14.32;;;;;;;21.46;64.96;101888.94;10509342;28;20035;-77
2021/06/14 21:01:28;;;;;;;29.55;17.83;;;;;;;21.37;66.67;101896.84;10522247;28;20087;-78
2021/06/14 21:06:29;;;;;;;26.88;19.85;;;;;;;21.14;68.18;101885.69;10543340;28;20055;-77
2021/06/14 21:11:29;;;;;;;25.13;19.20;;;;;;;21.15;67.83;101892.75;10540055;28;20503;-78
2021/06/14 21:16:30;;;;;;;24.85;19.02;;;;;;;20.95;68.86;101881.53;10545160;28;20134;-77
2021/06/14 21:21:31;;;;;;;26.75;19.70;;;;;;;21.00;69.76;101908.56;10542342;28;20035;-79
2021/06/14 21:26:31;;;;;;;24.85;18.00;;;;;;;20.92;70.15;101896.88;10543939;28;20044;-78
2021/06/14 21:31:32;;;;;;;27.67;20.08;;;;;;;20.67;70.44;101881.38;10528128;28;20043;-79
2021/06/14 21:36:33;;;;;;;28.58;18.75;;;;;;;20.79;70.75;101898.53;10513671;28;20644;-81
2021/06/14 21:41:34;;;;;;;28.80;18.95;;;;;;;20.74;71.39;101918.19;10529080;28;20036;-80
2021/06/14 21:46:37;;;;;;;26.95;18.80;;;;;;;20.67;71.86;101903.34;10523126;28;20023;-77
2021/06/14 21:51:37;;;;;;;28.25;17.95;;;;;;;20.45;72.18;101879.91;10551631;28;20031;-77
2021/06/14 21:56:38;;;;;;;25.67;17.77;;;;;;;20.44;72.03;101878.34;10538496;28;20059;-76
2021/06/14 22:01:39;;;;;;;27.67;16.63;;;;;;;20.51;73.05;101910.47;10528930;28;20048;-77
2021/06/14 22:06:42;;;;;;;22.48;15.35;;;;;;;20.19;72.96;101879.25;10547451;28;20040;-76
2021/06/14 22:11:45;;;;;;;22.15;15.25;;;;;;;20.10;73.61;101873.44;10526217;28;20463;-76
2021/06/14 22:16:45;;;;;;;18.25;13.52;;;;;;;20.26;73.67;101901.19;10541894;28;20038;-77
2021/06/14 22:21:46;;;;;;;18.80;12.48;;;;;;;20.29;73.85;101916.06;10546969;28;20066;-77
2021/06/14 22:26:47;;;;;;;17.95;11.95;;;;;;;20.15;74.24;101919.66;10548642;28;20036;-76
2021/06/14 22:31:47;;;;;;;16.13;10.93;;;;;;;19.97;73.88;101894.28;10550014;28;20042;-77
2021/06/14 22:36:48;;;;;;;13.07;9.18;;;;;;;20.15;74.21;101933.38;10553936;28;20122;-77
2021/06/14 22:41:48;;;;;;;12.77;8.45;;;;;;;20.13;74.49;101924.81;10557897;28;20039;-76
2021/06/14 22:46:49;;;;;;;13.18;9.63;;;;;;;19.91;75.42;101917.81;10542978;28;20035;-76
2021/06/14 22:51:49;;;;;;;12.10;9.27;;;;;;;19.74;76.30;101920.22;10540842;28;20039;-77
2021/06/14 22:56:50;;;;;;;12.93;8.45;;;;;;;19.67;76.24;101920.22;10557520;28;20035;-78
2021/06/14 23:01:50;;;;;;;14.77;9.45;;;;;;;19.48;76.50;101895.97;10559075;28;20062;-76